Time;durP1;ratioP1;P1;durP2;ratioP2;P2;SDS_P1;SDS_P2;PMS_P1;PMS_P2;Temp;Humidity;BMP_temperature;BMP_pressure;BME280_temperature;BME280_humidity;BME280_pressure;Samples;Min_cycle;Max_cycle;Signal;HPM_P1;HPM_P2
2021/03/16 00:00:58;;;;;;;5.90;1.30;;;6.80;84.80;;;;;;2057000;28;20409;-85
2021/03/16 00:01:59;;;;;;;7.15;1.45;;;6.80;84.70;;;;;;2057513;28;20141;-84
2021/03/16 00:02:59;;;;;;;6.88;1.23;;;6.70;84.70;;;;;;2058318;28;20094;-84
2021/03/16 00:04:00;;;;;;;8.75;1.30;;;6.70;84.70;;;;;;2065553;28;20038;-84
2021/03/16 00:05:00;;;;;;;7.75;1.27;;;6.70;84.70;;;;;;2063702;28;20022;-85
2021/03/16 00:06:03;;;;;;;9.30;1.40;;;6.70;84.70;;;;;;2065553;28;20502;-85
2021/03/16 00:07:06;;;;;;;9.27;1.35;;;6.80;84.80;;;;;;2065888;28;20037;-84
2021/03/16 00:08:07;;;;;;;6.63;1.23;;;6.80;84.80;;;;;;2065629;28;20022;-84
2021/03/16 00:09:07;;;;;;;8.43;1.42;;;6.70;84.70;;;;;;2065532;28;20054;-84
2021/03/16 00:10:08;;;;;;;8.98;1.38;;;6.80;84.80;;;;;;2065526;28;20081;-83
2021/03/16 00:11:09;;;;;;;6.70;1.10;;;6.80;84.80;;;;;;2065475;28;20035;-82
2021/03/16 00:12:10;;;;;;;9.45;1.30;;;6.80;85.40;;;;;;2057350;28;20042;-82
2021/03/16 00:13:11;;;;;;;11.73;1.60;;;6.80;84.80;;;;;;2073689;28;20117;-82
2021/03/16 00:14:11;;;;;;;7.55;1.50;;;6.80;84.70;;;;;;2065636;28;20125;-84
2021/03/16 00:15:12;;;;;;;7.20;1.00;;;6.80;84.70;;;;;;2073514;28;20018;-84
2021/03/16 00:16:13;;;;;;;5.93;1.33;;;6.80;84.80;;;;;;2067483;28;20026;-84
2021/03/16 00:17:14;;;;;;;7.40;1.20;;;6.80;84.80;;;;;;2062459;28;20488;-84
2021/03/16 00:18:15;;;;;;;5.60;1.10;;;6.80;84.70;;;;;;2066351;28;20470;-83
2021/03/16 00:19:16;;;;;;;7.53;1.40;;;6.80;84.70;;;;;;2070957;28;20488;-84
2021/03/16 00:20:16;;;;;;;7.57;1.30;;;6.80;84.70;;;;;;2060029;28;20030;-84
2021/03/16 00:21:17;;;;;;;7.45;1.27;;;6.80;84.70;;;;;;2048965;28;20041;-84
2021/03/16 00:22:18;;;;;;;6.25;0.98;;;6.80;84.70;;;;;;2057308;28;20019;-84
2021/03/16 00:23:19;;;;;;;8.55;1.50;;;6.80;84.80;;;;;;2064860;28;20535;-84
2021/03/16 00:24:19;;;;;;;7.63;1.45;;;6.80;84.80;;;;;;2065472;28;20054;-84
2021/03/16 00:25:20;;;;;;;8.85;1.10;;;6.80;84.80;;;;;;2057278;28;20109;-85
2021/03/16 00:26:21;;;;;;;9.18;1.23;;;6.80;84.80;;;;;;2072764;28;20480;-85
2021/03/16 00:27:22;;;;;;;5.72;0.98;;;6.80;84.80;;;;;;2071164;28;20041;-84
2021/03/16 00:28:22;;;;;;;6.40;1.00;;;6.80;84.80;;;;;;2059874;28;20131;-85
2021/03/16 00:29:23;;;;;;;6.53;1.27;;;6.80;85.40;;;;;;2048082;28;20441;-84
2021/03/16 00:30:24;;;;;;;10.75;1.30;;;6.80;84.80;;;;;;2049490;28;20023;-84
2021/03/16 00:31:25;;;;;;;7.05;1.23;;;6.80;84.80;;;;;;2073079;28;20037;-84
2021/03/16 00:32:26;;;;;;;7.90;1.83;;;6.80;84.80;;;;;;2065437;28;20118;-84
2021/03/16 00:33:27;;;;;;;7.10;1.05;;;6.80;84.80;;;;;;2065156;28;20034;-84
2021/03/16 00:34:27;;;;;;;8.15;1.20;;;6.80;84.80;;;;;;2086492;28;20030;-84
2021/03/16 00:35:28;;;;;;;7.68;1.38;;;6.70;84.80;;;;;;2065299;28;20419;-84
2021/03/16 00:36:29;;;;;;;6.32;1.27;;;6.80;84.90;;;;;;2068161;28;20102;-85
2021/03/16 00:37:30;;;;;;;6.38;1.15;;;6.70;84.80;;;;;;2065299;28;20402;-84
2021/03/16 00:38:30;;;;;;;8.35;1.20;;;6.70;84.90;;;;;;2065843;28;20366;-85
2021/03/16 00:39:31;;;;;;;4.55;0.93;;;6.70;84.90;;;;;;2073493;28;20475;-84
2021/03/16 00:40:32;;;;;;;7.70;1.30;;;6.70;84.90;;;;;;2065636;28;20374;-85
2021/03/16 00:41:33;;;;;;;8.63;1.08;;;6.70;84.90;;;;;;2054483;28;20480;-85
2021/03/16 00:42:33;;;;;;;6.32;0.90;;;6.70;85.00;;;;;;2065381;28;20042;-84
2021/03/16 00:43:34;;;;;;;8.00;1.33;;;6.70;85.00;;;;;;2065208;28;20038;-84
2021/03/16 00:44:34;;;;;;;6.07;0.95;;;6.60;85.00;;;;;;2057248;28;20125;-84
2021/03/16 00:45:35;;;;;;;6.00;0.93;;;6.60;85.00;;;;;;2065351;28;20089;-84
2021/03/16 00:46:36;;;;;;;5.75;0.88;;;6.60;85.10;;;;;;2066676;28;20061;-84
2021/03/16 00:47:37;;;;;;;6.60;1.10;;;6.60;85.80;;;;;;2065023;28;20125;-84
2021/03/16 00:48:38;;;;;;;7.15;1.27;;;6.60;85.20;;;;;;2065320;28;20073;-84
2021/03/16 00:49:38;;;;;;;9.38;1.35;;;6.60;85.70;;;;;;2065119;28;20038;-84
2021/03/16 00:50:39;;;;;;;5.00;1.20;;;6.50;85.10;;;;;;2063986;28;20073;-84
2021/03/16 00:51:40;;;;;;;11.00;1.27;;;6.50;85.10;;;;;;2074140;28;20088;-84
2021/03/16 00:52:41;;;;;;;6.82;1.00;;;6.60;85.20;;;;;;2068386;28;20477;-84
2021/03/16 00:53:41;;;;;;;7.50;1.20;;;6.50;85.10;;;;;;2057411;28;20058;-84
2021/03/16 00:54:42;;;;;;;7.93;1.17;;;6.50;85.20;;;;;;2065116;28;20113;-84
2021/03/16 00:55:42;;;;;;;7.28;1.10;;;6.50;85.10;;;;;;2055459;28;20030;-84
2021/03/16 00:56:43;;;;;;;6.32;1.13;;;6.60;85.20;;;;;;2071146;28;20122;-84
2021/03/16 00:57:43;;;;;;;5.70;1.27;;;6.50;85.00;;;;;;2065174;28;20109;-84
2021/03/16 00:58:44;;;;;;;7.15;0.90;;;6.50;85.70;;;;;;2065277;28;20055;-83
2021/03/16 00:59:45;;;;;;;6.32;1.10;;;6.60;85.10;;;;;;2067633;28;20034;-83
2021/03/16 01:00:45;;;;;;;8.10;1.40;;;6.60;85.10;;;;;;2070601;28;20057;-84
2021/03/16 01:01:46;;;;;;;6.53;1.20;;;6.60;85.70;;;;;;2065557;28;20022;-84
2021/03/16 01:02:46;;;;;;;8.95;1.27;;;6.60;85.10;;;;;;2073246;28;20113;-84
2021/03/16 01:03:47;;;;;;;7.35;1.33;;;6.60;85.10;;;;;;2073319;28;20018;-84
2021/03/16 01:04:48;;;;;;;6.65;1.13;;;6.60;85.10;;;;;;2080779;28;20124;-83
2021/03/16 01:05:50;;;;;;;5.55;1.00;;;6.60;85.00;;;;;;2076507;28;20049;-84
2021/03/16 01:06:51;;;;;;;5.55;1.08;;;6.60;85.10;;;;;;2073239;28;20539;-84
2021/03/16 01:07:52;;;;;;;6.97;1.17;;;6.60;85.00;;;;;;2074301;28;20077;-83
2021/03/16 01:08:52;;;;;;;7.78;1.20;;;6.60;85.10;;;;;;2063670;28;20034;-84
2021/03/16 01:09:53;;;;;;;4.68;0.90;;;6.60;85.10;;;;;;2064189;28;20478;-84
2021/03/16 01:10:55;;;;;;;7.25;1.52;;;6.60;85.10;;;;;;2081242;28;20385;-84
2021/03/16 01:11:55;;;;;;;7.68;1.20;;;6.60;85.20;;;;;;2081318;28;20053;-84
2021/03/16 01:12:56;;;;;;;5.90;0.95;;;6.60;85.10;;;;;;2081886;28;20147;-85
2021/03/16 01:13:57;;;;;;;5.28;0.93;;;6.60;85.00;;;;;;2080128;28;20029;-85
2021/03/16 01:14:57;;;;;;;6.35;1.10;;;6.50;85.00;;;;;;2073265;28;20069;-85
2021/03/16 01:15:58;;;;;;;3.97;1.00;;;6.60;85.60;;;;;;2081072;28;20036;-84
2021/03/16 01:16:59;;;;;;;5.22;0.73;;;6.60;85.10;;;;;;2073223;28;20022;-85
2021/03/16 01:18:00;;;;;;;7.00;0.93;;;6.60;85.10;;;;;;2068706;28;20097;-85
2021/03/16 01:19:01;;;;;;;5.70;0.82;;;6.60;85.00;;;;;;2066556;28;20018;-84
2021/03/16 01:20:04;;;;;;;4.53;0.77;;;6.60;85.00;;;;;;2065044;28;20117;-84
2021/03/16 01:21:05;;;;;;;5.38;1.10;;;6.60;84.90;;;;;;2065191;28;20120;-84
2021/03/16 01:22:06;;;;;;;5.18;1.10;;;6.60;84.90;;;;;;2064951;28;20026;-84
2021/03/16 01:23:06;;;;;;;6.13;0.82;;;6.60;84.90;;;;;;2065797;28;20027;-84
2021/03/16 01:24:08;;;;;;;6.20;1.15;;;6.70;84.80;;;;;;2057176;28;20030;-85
2021/03/16 01:25:09;;;;;;;5.88;1.00;;;6.60;84.80;;;;;;2064837;28;20030;-84
2021/03/16 01:26:10;;;;;;;6.13;1.42;;;6.70;84.80;;;;;;2071975;28;20125;-84
2021/03/16 01:27:10;;;;;;;7.97;1.30;;;6.70;85.30;;;;;;2072073;28;20030;-84
2021/03/16 01:28:11;;;;;;;7.95;1.20;;;6.60;84.60;;;;;;2064818;28;20061;-85
2021/03/16 01:29:12;;;;;;;5.22;1.00;;;6.70;84.60;;;;;;2064695;28;20027;-85
2021/03/16 01:30:14;;;;;;;5.70;1.00;;;6.70;84.50;;;;;;2056511;28;20038;-84
2021/03/16 01:31:14;;;;;;;7.82;1.25;;;6.70;84.50;;;;;;2072610;28;20131;-85
2021/03/16 01:32:15;;;;;;;6.25;1.77;;;6.70;84.30;;;;;;2073128;28;20038;-85
2021/03/16 01:33:15;;;;;;;6.50;1.08;;;6.70;85.00;;;;;;2080919;28;20189;-85
2021/03/16 01:34:17;;;;;;;6.97;1.00;;;6.70;84.40;;;;;;2073008;28;20069;-85
2021/03/16 01:35:18;;;;;;;5.95;0.95;;;6.70;84.40;;;;;;2056884;28;20030;-85
2021/03/16 01:36:19;;;;;;;5.43;1.00;;;6.70;84.40;;;;;;2064834;28;20038;-84
2021/03/16 01:37:19;;;;;;;4.10;1.00;;;6.70;84.40;;;;;;2055053;28;20397;-84
2021/03/16 01:38:20;;;;;;;6.15;1.30;;;6.70;84.30;;;;;;2063978;28;20512;-84
2021/03/16 01:39:21;;;;;;;5.30;0.80;;;6.70;84.40;;;;;;2056812;28;20482;-84
2021/03/16 01:40:33;;;;;;;3.55;0.70;;;6.70;84.90;;;;;;2066996;28;20030;-85
2021/03/16 01:41:34;;;;;;;3.17;0.90;;;6.70;84.30;;;;;;2072934;28;20562;-85
2021/03/16 01:42:35;;;;;;;6.40;1.00;;;6.70;84.30;;;;;;2064141;28;20034;-84
2021/03/16 01:43:36;;;;;;;5.88;0.98;;;6.70;84.30;;;;;;2065523;28;20037;-85
2021/03/16 01:44:37;;;;;;;4.32;0.98;;;6.70;84.30;;;;;;2068930;28;20022;-83
2021/03/16 01:45:39;;;;;;;6.55;1.00;;;6.70;84.40;;;;;;2073010;28;20116;-83
2021/03/16 01:46:41;;;;;;;4.00;0.65;;;6.70;84.30;;;;;;2079058;28;20483;-84
2021/03/16 01:47:46;;;;;;;6.63;1.20;;;6.70;84.30;;;;;;2064425;28;20069;-83
2021/03/16 01:48:47;;;;;;;6.15;0.85;;;6.70;84.30;;;;;;2060920;28;20220;-84
2021/03/16 01:49:48;;;;;;;6.28;1.15;;;6.70;84.20;;;;;;2072807;28;20500;-84
2021/03/16 01:50:49;;;;;;;4.85;0.77;;;6.70;84.10;;;;;;2056141;28;20037;-83
2021/03/16 01:51:50;;;;;;;6.20;1.30;;;6.70;84.10;;;;;;2056609;28;20077;-83
2021/03/16 01:52:53;;;;;;;4.72;0.85;;;6.70;84.70;;;;;;2071821;28;20030;-84
2021/03/16 01:53:53;;;;;;;4.97;0.70;;;6.70;84.10;;;;;;2064830;28;20056;-84
2021/03/16 01:54:55;;;;;;;7.35;0.90;;;6.70;84.10;;;;;;2064833;28;20026;-83
2021/03/16 01:55:57;;;;;;;9.45;1.02;;;6.70;84.10;;;;;;2064605;28;20034;-83
2021/03/16 01:57:02;;;;;;;3.50;0.80;;;6.70;84.10;;;;;;2064934;28;20053;-83
2021/03/16 01:58:03;;;;;;;4.20;0.68;;;6.70;84.10;;;;;;2057041;28;20157;-84
2021/03/16 01:59:04;;;;;;;5.35;0.80;;;6.70;84.00;;;;;;2072913;28;20076;-84
2021/03/16 02:00:07;;;;;;;3.50;0.65;;;6.70;84.00;;;;;;2081540;28;20076;-84
2021/03/16 02:01:07;;;;;;;3.58;0.73;;;6.70;84.60;;;;;;2080548;28;20087;-84
2021/03/16 02:02:08;;;;;;;3.72;0.82;;;6.70;84.10;;;;;;2080909;28;20122;-83
2021/03/16 02:03:10;;;;;;;6.20;0.85;;;6.70;84.10;;;;;;2072678;28;20022;-83
2021/03/16 02:04:12;;;;;;;5.75;0.65;;;6.70;84.10;;;;;;2064685;28;20078;-83
2021/03/16 02:05:13;;;;;;;5.75;0.85;;;6.60;83.90;;;;;;2056757;28;20058;-83
2021/03/16 02:06:25;;;;;;;5.95;1.38;;;6.60;83.90;;;;;;2056363;28;20038;-83
2021/03/16 02:07:34;;;;;;;6.25;1.40;;;6.60;83.90;;;;;;2068255;28;20034;-83
2021/03/16 02:08:34;;;;;;;5.70;0.95;;;6.60;83.90;;;;;;2071002;28;20025;-83
2021/03/16 02:09:43;;;;;;;5.10;0.85;;;6.60;84.00;;;;;;2075700;28;20116;-83
2021/03/16 02:11:05;;;;;;;6.68;1.00;;;6.60;83.90;;;;;;2077069;28;20116;-84
2021/03/16 02:12:20;;;;;;;4.70;1.00;;;6.60;83.90;;;;;;2080599;28;20103;-83
2021/03/16 02:13:25;;;;;;;6.03;1.00;;;6.50;83.80;;;;;;2064447;28;20050;-83
2021/03/16 02:14:34;;;;;;;4.63;0.70;;;6.50;83.70;;;;;;2065025;28;20496;-84
2021/03/16 02:15:38;;;;;;;6.78;1.02;;;6.50;83.70;;;;;;2072772;28;20366;-84
2021/03/16 02:17:02;;;;;;;6.28;0.90;;;6.50;83.70;;;;;;2074776;28;20037;-84
2021/03/16 02:18:12;;;;;;;2.92;0.60;;;6.50;83.70;;;;;;2082673;28;20060;-84
2021/03/16 02:19:44;;;;;;;3.90;0.70;;;6.50;83.70;;;;;;2074871;28;20018;-84
2021/03/16 02:21:10;;;;;;;7.88;0.82;;;6.50;83.80;;;;;;2076187;28;20435;-84
2021/03/16 02:22:12;;;;;;;5.00;0.70;;;6.60;83.70;;;;;;2082258;28;20060;-85
2021/03/16 02:23:19;;;;;;;7.70;1.25;;;6.60;83.70;;;;;;2080592;28;20059;-83
2021/03/16 02:24:54;;;;;;;4.15;0.80;;;6.50;83.60;;;;;;2080057;28;20025;-84
2021/03/16 02:26:12;;;;;;;3.78;0.77;;;6.50;83.60;;;;;;2088562;28;20071;-84
2021/03/16 02:27:18;;;;;;;3.75;0.80;;;6.60;84.20;;;;;;2080156;28;20049;-84
2021/03/16 02:28:42;;;;;;;4.82;0.73;;;6.60;83.60;;;;;;2079806;28;20028;-84
2021/03/16 02:29:45;;;;;;;5.90;0.88;;;6.60;83.70;;;;;;2076248;28;20492;-84
2021/03/16 02:30:46;;;;;;;4.50;0.70;;;6.50;83.60;;;;;;2071123;28;20037;-83
2021/03/16 02:31:59;;;;;;;4.32;0.68;;;6.50;83.60;;;;;;2064740;28;20034;-84
2021/03/16 02:33:02;;;;;;;4.25;0.70;;;6.60;84.30;;;;;;2074740;28;20033;-84
2021/03/16 02:34:05;;;;;;;4.50;0.73;;;6.60;83.60;;;;;;2087600;28;20033;-84
2021/03/16 02:35:07;;;;;;;5.35;0.75;;;6.60;83.60;;;;;;2070402;28;20105;-84
2021/03/16 02:36:11;;;;;;;5.15;0.70;;;6.60;83.60;;;;;;2067137;28;20024;-84
2021/03/16 02:37:15;;;;;;;4.25;1.00;;;6.60;83.60;;;;;;2057082;28;20485;-84
2021/03/16 02:38:19;;;;;;;4.78;0.90;;;6.60;83.60;;;;;;2073775;28;20479;-84
2021/03/16 02:39:21;;;;;;;5.63;0.93;;;6.60;84.20;;;;;;2083483;28;20022;-85
2021/03/16 02:40:26;;;;;;;6.43;0.75;;;6.60;83.50;;;;;;2072293;28;20137;-86
2021/03/16 02:41:29;;;;;;;6.60;1.00;;;6.60;83.40;;;;;;2081464;28;20040;-85
2021/03/16 02:42:33;;;;;;;7.20;1.10;;;6.60;83.40;;;;;;2077295;28;20052;-84
2021/03/16 02:43:35;;;;;;;4.25;1.05;;;6.60;83.40;;;;;;2072715;28;20026;-84
2021/03/16 02:44:37;;;;;;;4.80;0.80;;;6.60;83.50;;;;;;2064716;28;20035;-85
2021/03/16 02:45:38;;;;;;;4.00;0.73;;;6.60;83.50;;;;;;2064615;28;20023;-85
2021/03/16 02:46:42;;;;;;;4.70;0.75;;;6.60;83.40;;;;;;2079646;28;20603;-84
2021/03/16 02:47:44;;;;;;;4.70;0.90;;;6.60;83.40;;;;;;2080405;28;20033;-85
2021/03/16 02:48:47;;;;;;;4.35;0.88;;;6.60;83.40;;;;;;2072525;28;20037;-84
2021/03/16 02:49:48;;;;;;;4.15;0.77;;;6.60;83.40;;;;;;2064578;28;20068;-84
2021/03/16 02:50:50;;;;;;;4.70;0.70;;;6.60;83.40;;;;;;2056601;28;20413;-84
2021/03/16 02:51:55;;;;;;;5.53;0.90;;;6.60;83.40;;;;;;2072561;28;20045;-84
2021/03/16 02:52:56;;;;;;;3.80;0.57;;;6.60;83.40;;;;;;2072508;28;20117;-84
2021/03/16 02:53:59;;;;;;;4.78;0.85;;;6.60;83.40;;;;;;2076172;28;20385;-84
2021/03/16 02:55:00;;;;;;;3.80;0.60;;;6.60;83.40;;;;;;2080755;28;20037;-84
2021/03/16 02:56:01;;;;;;;2.95;0.60;;;6.60;83.40;;;;;;2080777;28;20022;-84
2021/03/16 02:57:02;;;;;;;4.40;0.68;;;6.60;83.50;;;;;;2064495;28;20026;-84
2021/03/16 02:58:04;;;;;;;7.15;0.70;;;6.60;83.50;;;;;;2056242;28;20437;-85
2021/03/16 02:59:06;;;;;;;7.70;1.15;;;6.60;83.50;;;;;;2064448;28;20030;-84
2021/03/16 03:00:07;;;;;;;4.65;0.82;;;6.60;83.50;;;;;;2084822;28;20032;-85
2021/03/16 03:01:08;;;;;;;5.10;0.90;;;6.60;83.40;;;;;;2090953;28;20498;-84
2021/03/16 03:02:10;;;;;;;5.88;0.80;;;6.60;84.10;;;;;;2086148;28;20040;-85
2021/03/16 03:03:12;;;;;;;6.18;1.10;;;6.60;83.40;;;;;;2088634;28;20021;-84
2021/03/16 03:04:14;;;;;;;6.43;0.90;;;6.60;83.40;;;;;;2072367;28;20041;-85
2021/03/16 03:05:15;;;;;;;4.75;0.80;;;6.60;83.40;;;;;;2057181;28;20149;-84
2021/03/16 03:06:18;;;;;;;5.93;0.88;;;6.60;83.40;;;;;;2073289;28;20053;-84
2021/03/16 03:07:20;;;;;;;5.00;0.88;;;6.60;83.40;;;;;;2080651;28;20025;-85
2021/03/16 03:08:23;;;;;;;2.80;0.60;;;6.60;83.30;;;;;;2071845;28;20049;-84
2021/03/16 03:09:23;;;;;;;3.30;0.60;;;6.60;83.40;;;;;;2056465;28;20105;-84
2021/03/16 03:10:24;;;;;;;7.32;0.73;;;6.60;83.30;;;;;;2063978;28;20027;-84
2021/03/16 03:11:25;;;;;;;4.07;0.80;;;6.60;83.30;;;;;;2076471;28;20406;-84
2021/03/16 03:12:26;;;;;;;5.25;0.80;;;6.60;84.00;;;;;;2072206;28;20045;-85
2021/03/16 03:13:26;;;;;;;6.82;0.90;;;6.60;83.40;;;;;;2072323;28;20092;-84
2021/03/16 03:14:27;;;;;;;6.47;0.98;;;6.60;83.40;;;;;;2073035;28;20467;-84
2021/03/16 03:15:28;;;;;;;5.57;0.93;;;6.60;83.40;;;;;;2080579;28;20029;-85
2021/03/16 03:16:29;;;;;;;6.47;1.10;;;6.60;83.30;;;;;;2062513;28;20064;-84
2021/03/16 03:17:29;;;;;;;4.07;0.70;;;6.60;83.30;;;;;;2056420;28;20031;-84
2021/03/16 03:18:31;;;;;;;7.82;1.00;;;6.60;83.30;;;;;;2072372;28;20026;-84
2021/03/16 03:19:33;;;;;;;5.45;0.80;;;6.60;83.40;;;;;;2064838;28;20496;-84
2021/03/16 03:20:35;;;;;;;6.53;0.68;;;6.60;83.30;;;;;;2064448;28;20086;-84
2021/03/16 03:21:59;;;;;;;6.20;0.80;;;6.60;83.30;;;;;;2064439;28;20073;-85
2021/03/16 03:23:25;;;;;;;5.15;0.82;;;6.60;83.30;;;;;;2072625;28;20036;-85
2021/03/16 03:24:36;;;;;;;6.63;0.80;;;6.60;83.20;;;;;;2067563;28;20046;-85
2021/03/16 03:25:43;;;;;;;3.10;0.60;;;6.60;83.20;;;;;;2067382;28;20019;-84
2021/03/16 03:27:15;;;;;;;3.35;0.70;;;6.60;83.30;;;;;;2080341;28;20026;-84
2021/03/16 03:28:25;;;;;;;6.88;1.10;;;6.60;83.30;;;;;;2071526;28;20543;-85
2021/03/16 03:29:27;;;;;;;2.65;0.80;;;6.60;83.30;;;;;;2064482;28;20563;-84
2021/03/16 03:30:29;;;;;;;6.82;0.68;;;6.60;83.30;;;;;;2069351;28;20022;-84
2021/03/16 03:31:32;;;;;;;4.45;0.65;;;6.60;83.30;;;;;;2069554;28;20030;-84
2021/03/16 03:32:36;;;;;;;4.25;0.57;;;6.60;83.30;;;;;;2064756;28;20026;-84
2021/03/16 03:33:40;;;;;;;3.53;0.63;;;6.60;83.30;;;;;;2072577;28;20022;-84
2021/03/16 03:34:43;;;;;;;5.00;0.60;;;6.60;83.30;;;;;;2073162;28;20029;-85
2021/03/16 03:35:44;;;;;;;6.15;0.80;;;6.60;83.30;;;;;;2073318;28;20026;-84
2021/03/16 03:36:49;;;;;;;3.95;0.60;;;6.60;83.30;;;;;;2073466;28;20030;-84
2021/03/16 03:37:50;;;;;;;4.20;0.60;;;6.60;83.30;;;;;;2067209;28;20053;-84
2021/03/16 03:38:53;;;;;;;4.13;0.65;;;6.60;83.40;;;;;;2061767;28;20077;-84
2021/03/16 03:39:55;;;;;;;6.30;0.80;;;6.60;83.40;;;;;;2064142;28;20133;-84
2021/03/16 03:40:57;;;;;;;3.97;0.80;;;6.60;83.40;;;;;;2082134;28;20034;-84
2021/03/16 03:41:58;;;;;;;4.40;0.80;;;6.50;83.40;;;;;;2088498;28;20034;-84
2021/03/16 03:43:05;;;;;;;2.60;0.63;;;6.60;83.50;;;;;;2072610;28;20042;-84
2021/03/16 03:44:08;;;;;;;4.18;0.80;;;6.50;83.50;;;;;;2074497;28;20022;-84
2021/03/16 03:45:11;;;;;;;2.95;0.55;;;6.60;83.60;;;;;;2090377;28;20017;-84
2021/03/16 03:46:16;;;;;;;3.25;0.52;;;6.50;83.50;;;;;;2081553;28;20022;-85
2021/03/16 03:47:18;;;;;;;2.63;0.50;;;6.50;83.50;;;;;;2072563;28;20022;-83
2021/03/16 03:48:21;;;;;;;3.40;0.50;;;6.50;83.60;;;;;;2074008;28;20484;-84
2021/03/16 03:49:23;;;;;;;4.00;0.52;;;6.50;83.60;;;;;;2068008;28;20085;-84
2021/03/16 03:50:25;;;;;;;3.60;0.70;;;6.50;83.60;;;;;;2080799;28;20102;-84
2021/03/16 03:51:26;;;;;;;3.17;0.60;;;6.50;83.60;;;;;;2088963;28;20020;-84
2021/03/16 03:52:28;;;;;;;2.70;0.60;;;6.50;83.60;;;;;;2072915;28;20082;-84
2021/03/16 03:53:30;;;;;;;4.07;0.80;;;6.50;83.50;;;;;;2073259;28;20033;-85
2021/03/16 03:54:33;;;;;;;4.10;0.70;;;6.50;83.50;;;;;;2072130;28;20026;-85
2021/03/16 03:55:35;;;;;;;4.85;0.80;;;6.60;84.20;;;;;;2066913;28;20071;-84
2021/03/16 03:56:37;;;;;;;3.35;0.70;;;6.50;83.50;;;;;;2078231;28;20061;-84
2021/03/16 03:57:41;;;;;;;3.25;0.75;;;6.60;83.60;;;;;;2063517;28;20485;-84
2021/03/16 03:58:43;;;;;;;3.47;0.60;;;6.60;83.60;;;;;;2058406;28;20038;-84
2021/03/16 03:59:48;;;;;;;6.70;0.90;;;6.60;83.60;;;;;;2069546;28;20024;-85
2021/03/16 04:00:49;;;;;;;4.43;0.68;;;6.60;83.50;;;;;;2070940;28;20041;-84
2021/03/16 04:01:51;;;;;;;4.05;0.60;;;6.60;83.50;;;;;;2065661;28;20547;-84
2021/03/16 04:02:53;;;;;;;4.07;0.70;;;6.60;83.50;;;;;;2074042;28;20468;-85
2021/03/16 04:03:54;;;;;;;4.93;0.80;;;6.60;83.50;;;;;;2073863;28;20026;-85
2021/03/16 04:04:56;;;;;;;6.82;0.68;;;6.60;83.50;;;;;;2079673;28;20116;-84
2021/03/16 04:05:59;;;;;;;4.07;0.70;;;6.60;83.50;;;;;;2072868;28;20041;-84
2021/03/16 04:07:00;;;;;;;4.95;0.70;;;6.60;83.50;;;;;;2065602;28;20092;-84
2021/03/16 04:08:03;;;;;;;3.58;0.60;;;6.60;84.10;;;;;;2065390;28;20093;-84
2021/03/16 04:09:04;;;;;;;2.30;0.40;;;6.60;83.50;;;;;;2061339;28;20485;-84
2021/03/16 04:10:07;;;;;;;3.05;0.60;;;6.60;83.50;;;;;;2065803;28;20081;-84
2021/03/16 04:11:08;;;;;;;5.13;0.63;;;6.60;83.50;;;;;;2069237;28;20050;-84
2021/03/16 04:12:10;;;;;;;4.20;0.77;;;6.60;83.50;;;;;;2072910;28;20057;-84
2021/03/16 04:13:11;;;;;;;5.47;0.98;;;6.60;83.50;;;;;;2081772;28;20077;-84
2021/03/16 04:14:12;;;;;;;4.38;0.80;;;6.60;83.50;;;;;;2081027;28;20654;-84
2021/03/16 04:15:15;;;;;;;5.57;0.73;;;6.60;83.50;;;;;;2078498;28;20471;-84
2021/03/16 04:16:20;;;;;;;3.10;0.60;;;6.60;83.50;;;;;;2074480;28;20060;-84
2021/03/16 04:17:21;;;;;;;4.88;0.80;;;6.60;83.60;;;;;;2085657;28;20034;-84
2021/03/16 04:18:22;;;;;;;3.60;0.73;;;6.60;83.60;;;;;;2081838;28;20026;-84
2021/03/16 04:19:23;;;;;;;5.72;0.77;;;6.60;83.60;;;;;;2081545;28;20040;-85
2021/03/16 04:20:25;;;;;;;5.60;0.80;;;6.60;83.60;;;;;;2081453;28;20403;-84
2021/03/16 04:21:25;;;;;;;4.70;0.60;;;6.60;83.70;;;;;;2065670;28;20424;-82
2021/03/16 04:22:27;;;;;;;2.50;0.80;;;6.60;83.70;;;;;;2073310;28;20022;-82
2021/03/16 04:23:27;;;;;;;4.80;0.77;;;6.60;83.60;;;;;;2081956;28;20115;-82
2021/03/16 04:24:28;;;;;;;3.67;0.70;;;6.60;83.70;;;;;;2078523;28;20034;-82
2021/03/16 04:25:30;;;;;;;5.15;0.90;;;6.60;83.70;;;;;;2085094;28;20030;-82
2021/03/16 04:26:31;;;;;;;3.85;0.90;;;6.60;83.70;;;;;;2081730;28;20041;-82
2021/03/16 04:27:31;;;;;;;2.45;0.50;;;6.60;83.80;;;;;;2059441;28;20027;-83
2021/03/16 04:28:32;;;;;;;5.68;0.88;;;6.60;83.80;;;;;;2068116;28;20045;-82
2021/03/16 04:29:33;;;;;;;6.30;1.13;;;6.50;83.80;;;;;;2064502;28;20059;-82
2021/03/16 04:30:33;;;;;;;5.10;0.65;;;6.50;83.80;;;;;;2056928;28;20031;-82
2021/03/16 04:31:34;;;;;;;5.43;0.90;;;6.50;83.80;;;;;;2073201;28;20029;-83
2021/03/16 04:32:35;;;;;;;6.47;1.00;;;6.50;83.80;;;;;;2074764;28;20443;-82
2021/03/16 04:33:35;;;;;;;8.23;1.08;;;6.60;83.90;;;;;;2076128;28;20060;-82
2021/03/16 04:34:36;;;;;;;3.13;0.70;;;6.60;83.90;;;;;;2072240;28;20500;-82
2021/03/16 04:35:36;;;;;;;6.72;1.00;;;6.50;83.90;;;;;;2056726;28;20031;-82
2021/03/16 04:36:40;;;;;;;3.20;0.65;;;6.50;84.00;;;;;;2061716;28;20389;-83
2021/03/16 04:37:41;;;;;;;4.38;0.98;;;6.50;84.00;;;;;;2059848;28;20421;-83
2021/03/16 04:38:41;;;;;;;4.80;0.88;;;6.50;84.00;;;;;;2064584;28;20030;-83
2021/03/16 04:39:42;;;;;;;5.95;0.80;;;6.50;84.00;;;;;;2057158;28;20577;-83
2021/03/16 04:40:43;;;;;;;5.80;0.93;;;6.50;84.10;;;;;;2055563;28;20027;-83
2021/03/16 04:41:44;;;;;;;4.90;0.73;;;6.50;84.10;;;;;;2064044;28;20060;-83
2021/03/16 04:42:44;;;;;;;5.80;0.80;;;6.50;84.10;;;;;;2065597;28;20457;-83
2021/03/16 04:43:45;;;;;;;5.82;0.80;;;6.50;84.10;;;;;;2065912;28;20026;-82
2021/03/16 04:44:46;;;;;;;4.90;0.80;;;6.50;84.10;;;;;;2067043;28;20038;-82
2021/03/16 04:45:46;;;;;;;4.20;0.88;;;6.50;84.10;;;;;;2057055;28;20030;-81
2021/03/16 04:46:47;;;;;;;4.63;0.73;;;6.50;84.10;;;;;;2060679;28;20500;-82
2021/03/16 04:47:47;;;;;;;5.22;0.93;;;6.50;84.20;;;;;;2050799;28;20142;-82
2021/03/16 04:48:48;;;;;;;6.82;0.80;;;6.50;84.20;;;;;;2061998;28;20023;-81
2021/03/16 04:49:49;;;;;;;5.45;1.40;;;6.50;84.20;;;;;;2073484;28;20041;-83
2021/03/16 04:50:50;;;;;;;3.70;0.90;;;6.50;84.20;;;;;;2068361;28;20484;-83
2021/03/16 04:51:51;;;;;;;5.78;0.90;;;6.50;84.30;;;;;;2065309;28;20034;-82
2021/03/16 04:52:52;;;;;;;5.93;1.00;;;6.50;84.30;;;;;;2064882;28;20018;-82
2021/03/16 04:53:54;;;;;;;6.85;1.15;;;6.50;84.30;;;;;;2057005;28;20031;-82
2021/03/16 04:54:55;;;;;;;5.75;1.33;;;6.50;84.30;;;;;;2065609;28;20030;-82
2021/03/16 04:55:55;;;;;;;6.47;0.98;;;6.50;84.30;;;;;;2065516;28;20566;-82
2021/03/16 04:56:56;;;;;;;4.90;0.80;;;6.50;84.40;;;;;;2069538;28;20073;-82
2021/03/16 04:57:58;;;;;;;3.83;0.63;;;6.50;84.40;;;;;;2089280;28;20410;-82
2021/03/16 04:59:00;;;;;;;4.55;0.80;;;6.50;84.40;;;;;;2069140;28;20033;-82
2021/03/16 05:00:01;;;;;;;5.80;1.08;;;6.50;84.40;;;;;;2057598;28;20535;-82
2021/03/16 05:01:01;;;;;;;6.88;0.90;;;6.50;84.40;;;;;;2056642;28;20123;-83
2021/03/16 05:02:02;;;;;;;6.60;0.90;;;6.50;84.50;;;;;;2064067;28;20523;-82
2021/03/16 05:03:03;;;;;;;5.22;0.60;;;6.50;84.50;;;;;;2081365;28;20034;-82
2021/03/16 05:04:03;;;;;;;5.22;0.80;;;6.50;84.50;;;;;;2061006;28;20373;-82
2021/03/16 05:05:05;;;;;;;5.63;0.90;;;6.50;84.50;;;;;;2065307;28;20030;-82
2021/03/16 05:06:06;;;;;;;7.65;0.88;;;6.50;84.50;;;;;;2072969;28;20439;-83
2021/03/16 05:07:06;;;;;;;6.45;0.93;;;6.40;84.50;;;;;;2065059;28;20101;-82
2021/03/16 05:08:07;;;;;;;4.53;0.63;;;6.50;84.60;;;;;;2064912;28;20038;-83
2021/03/16 05:09:08;;;;;;;5.18;0.80;;;6.50;84.60;;;;;;2057298;28;20075;-82
2021/03/16 05:10:09;;;;;;;4.00;0.90;;;6.50;84.60;;;;;;2065304;28;20037;-82
2021/03/16 05:11:10;;;;;;;7.18;1.23;;;6.50;84.60;;;;;;2064870;28;20444;-82
2021/03/16 05:12:10;;;;;;;5.30;0.90;;;6.50;84.60;;;;;;2064746;28;20022;-83
2021/03/16 05:13:11;;;;;;;6.95;0.90;;;6.40;84.50;;;;;;2064835;28;20033;-83
2021/03/16 05:14:12;;;;;;;5.60;0.70;;;6.50;84.60;;;;;;2064342;28;20030;-83
2021/03/16 05:15:13;;;;;;;6.55;1.08;;;6.40;84.50;;;;;;2057090;28;20034;-82
2021/03/16 05:16:13;;;;;;;5.43;1.00;;;6.40;84.60;;;;;;2046967;28;20402;-82
2021/03/16 05:17:15;;;;;;;5.22;0.90;;;6.40;84.60;;;;;;2064941;28;20049;-82
2021/03/16 05:18:16;;;;;;;8.57;1.00;;;6.40;84.60;;;;;;2073267;28;20025;-83
2021/03/16 05:19:17;;;;;;;9.63;1.52;;;6.40;84.60;;;;;;2072746;28;20459;-81
2021/03/16 05:20:18;;;;;;;11.00;1.30;;;6.40;84.60;;;;;;2065087;28;20559;-83
2021/03/16 05:21:18;;;;;;;5.40;1.05;;;6.40;84.60;;;;;;2064212;28;20037;-82
2021/03/16 05:22:19;;;;;;;5.80;1.10;;;6.40;84.70;;;;;;2064325;28;20034;-83
2021/03/16 05:23:20;;;;;;;4.70;0.85;;;6.40;84.70;;;;;;2064993;28;20400;-82
2021/03/16 05:24:20;;;;;;;6.85;1.20;;;6.40;84.70;;;;;;2059946;28;20118;-82
2021/03/16 05:25:21;;;;;;;6.57;1.20;;;6.40;84.70;;;;;;2065075;28;20040;-82
2021/03/16 05:26:23;;;;;;;5.25;0.80;;;6.40;84.70;;;;;;2069082;28;20029;-83
2021/03/16 05:27:23;;;;;;;5.80;0.98;;;6.40;84.70;;;;;;2065115;28;20042;-82
2021/03/16 05:28:24;;;;;;;7.95;0.88;;;6.40;84.70;;;;;;2066084;28;20034;-82
2021/03/16 05:29:25;;;;;;;7.10;1.13;;;6.40;84.70;;;;;;2071804;28;20045;-84
2021/03/16 05:30:26;;;;;;;5.78;0.80;;;6.40;84.80;;;;;;2080944;28;20513;-84